createdAt,value
2019-06-27T00:01:22.541Z,99032.45
2019-06-27T00:03:55.036Z,99033.10
2019-06-27T00:06:28.124Z,99031.02
2019-06-27T00:09:00.307Z,99023.47
2019-06-27T00:11:33.069Z,99025.63
2019-06-27T00:14:06.270Z,99031.17
2019-06-27T00:16:40.293Z,99024.36
2019-06-27T00:19:14.276Z,99026.84
2019-06-27T00:21:48.492Z,99023.64
2019-06-27T00:24:20.243Z,99019.34
2019-06-27T00:26:57.216Z,99020.20
2019-06-27T00:29:24.570Z,99017.02
2019-06-27T00:31:57.190Z,99027.45
2019-06-27T00:34:29.231Z,99025.37
2019-06-27T00:37:03.306Z,99020.31
2019-06-27T00:39:36.738Z,99017.59
2019-06-27T00:42:09.236Z,99016.06
2019-06-27T00:44:41.419Z,99019.04
2019-06-27T00:47:14.366Z,99021.61
2019-06-27T00:49:46.333Z,99023.86
2019-06-27T00:52:19.424Z,99019.05
2019-06-27T00:54:51.169Z,99015.86
2019-06-27T00:57:24.526Z,99017.53
2019-06-27T00:59:57.389Z,99021.70
2019-06-27T01:02:29.461Z,99011.70
2019-06-27T01:05:03.455Z,99013.70
2019-06-27T01:07:36.447Z,99024.38
2019-06-27T01:10:09.808Z,99016.86
2019-06-27T01:12:42.400Z,99016.13
2019-06-27T01:15:15.564Z,99012.35
2019-06-27T01:17:48.504Z,99018.14
2019-06-27T01:20:21.598Z,99008.13
2019-06-27T01:22:54.468Z,99015.00
2019-06-27T01:25:28.747Z,99016.36
2019-06-27T01:28:01.594Z,99012.36
2019-06-27T01:30:33.503Z,99013.72
2019-06-27T01:33:06.743Z,99011.72
2019-06-27T01:35:39.655Z,99006.61
2019-06-27T01:38:12.493Z,99012.23
2019-06-27T01:40:45.698Z,99011.22
2019-06-27T01:43:18.561Z,99009.86
2019-06-27T01:45:53.948Z,99008.50
2019-06-27T01:48:29.322Z,99011.56
2019-06-27T01:51:00.735Z,99010.27
2019-06-27T01:53:33.755Z,99015.22
2019-06-27T01:56:07.557Z,99015.22
2019-06-27T01:58:39.669Z,99011.47
2019-06-27T02:01:11.923Z,99011.94
2019-06-27T02:03:44.601Z,99010.36
2019-06-27T02:06:15.884Z,99008.19
2019-06-27T02:08:48.737Z,99017.63
2019-06-27T02:11:21.633Z,99008.83
2019-06-27T02:13:54.813Z,99015.88
2019-06-27T02:16:26.722Z,99017.36
2019-06-27T02:18:58.007Z,99015.53
2019-06-27T02:21:29.700Z,99015.05
2019-06-27T02:24:02.884Z,99010.09
2019-06-27T02:26:35.959Z,99014.42
2019-06-27T02:29:09.991Z,99016.00
2019-06-27T02:31:42.793Z,99014.89
2019-06-27T02:34:15.740Z,99017.31
2019-06-27T02:36:48.955Z,98966.59
2019-06-27T02:39:21.934Z,99021.54
2019-06-27T02:41:54.960Z,99022.27
2019-06-27T02:44:28.007Z,99015.38
2019-06-27T02:47:01.074Z,99015.55
2019-06-27T02:49:32.956Z,99013.55
2019-06-27T02:52:06.857Z,99010.19
2019-06-27T02:54:39.015Z,99009.55
2019-06-27T02:57:13.102Z,99004.75
2019-06-27T02:59:44.974Z,98998.97
2019-06-27T03:02:20.628Z,98998.97
2019-06-27T03:04:52.010Z,98998.25
2019-06-27T03:07:25.235Z,98997.78
2019-06-27T03:09:58.164Z,99003.22
2019-06-27T03:12:31.951Z,99007.47
2019-06-27T03:15:04.154Z,99009.64
2019-06-27T03:17:36.222Z,99009.05
2019-06-27T03:20:12.180Z,99011.77
2019-06-27T03:22:46.104Z,99013.47
2019-06-27T03:25:19.172Z,99010.41
2019-06-27T03:27:51.291Z,99022.91
2019-06-27T03:30:23.096Z,99018.74
2019-06-27T03:32:55.294Z,99015.80
2019-06-27T03:35:27.225Z,99016.52
2019-06-27T03:38:01.253Z,99020.83
2019-06-27T03:40:34.352Z,99024.53
2019-06-27T03:43:07.618Z,99020.14
2019-06-27T03:45:40.178Z,99023.76
2019-06-27T03:48:13.340Z,99029.92
2019-06-27T03:50:46.437Z,99030.23
2019-06-27T03:53:20.219Z,99024.95
2019-06-27T03:55:51.840Z,99026.14
2019-06-27T03:58:24.698Z,99021.07
2019-06-27T04:00:58.443Z,99024.20
2019-06-27T04:03:31.630Z,99017.48
2019-06-27T04:06:04.366Z,99019.22
2019-06-27T04:08:38.321Z,99023.69
2019-06-27T04:11:10.708Z,99026.57
2019-06-27T04:13:43.438Z,99025.45
2019-06-27T04:16:16.462Z,99025.92
2019-06-27T04:18:48.468Z,99025.99
2019-06-27T04:21:22.563Z,99027.73
2019-06-27T04:23:54.672Z,99029.91
2019-06-27T04:26:28.504Z,99028.83
2019-06-27T04:29:01.398Z,99031.31
2019-06-27T04:31:43.911Z,99029.42
2019-06-27T04:34:22.173Z,99032.67
2019-06-27T04:36:58.454Z,99028.33
2019-06-27T04:39:31.629Z,99028.30
2019-06-27T04:42:05.759Z,99030.08
2019-06-27T04:44:39.660Z,99029.87
2019-06-27T04:47:13.500Z,99028.55
2019-06-27T04:49:45.686Z,99027.45
2019-06-27T04:52:18.410Z,99028.86
2019-06-27T04:54:50.599Z,99024.26
2019-06-27T04:57:29.099Z,99024.20
2019-06-27T05:00:02.368Z,99023.15
2019-06-27T05:02:34.706Z,99026.37
2019-06-27T05:05:06.741Z,99027.73
2019-06-27T05:07:38.815Z,99029.20
2019-06-27T05:10:12.741Z,99021.27
2019-06-27T05:12:45.390Z,99022.64
2019-06-27T05:15:18.498Z,99020.49
2019-06-27T05:17:51.905Z,99023.03
2019-06-27T05:20:25.887Z,99025.09
2019-06-27T05:22:57.162Z,99024.98
2019-06-27T05:25:29.873Z,99026.16
2019-06-27T05:28:02.015Z,99023.65
2019-06-27T05:30:35.099Z,99018.65
2019-06-27T05:33:06.986Z,99016.88
2019-06-27T05:35:39.917Z,99015.73
2019-06-27T05:38:13.988Z,99011.19
2019-06-27T05:40:47.608Z,99009.35
2019-06-27T05:43:19.908Z,99014.15
2019-06-27T05:45:53.573Z,99015.28
2019-06-27T05:48:25.837Z,99004.91
2019-06-27T05:50:57.252Z,99002.30
2019-06-27T05:53:29.113Z,99003.07
2019-06-27T05:56:00.880Z,98992.12
2019-06-27T05:58:33.891Z,98994.50
2019-06-27T06:01:06.906Z,98992.95
2019-06-27T06:03:40.001Z,98998.30
2019-06-27T06:06:15.606Z,99002.03
2019-06-27T06:08:47.855Z,98998.59
2019-06-27T06:11:23.930Z,99002.77
2019-06-27T06:13:55.909Z,99003.14
2019-06-27T06:16:31.992Z,99002.20
2019-06-27T06:19:03.983Z,99001.70
2019-06-27T06:21:37.166Z,99006.79
2019-06-27T06:24:09.277Z,99006.69
2019-06-27T06:26:42.071Z,99009.16
2019-06-27T06:29:16.035Z,99008.10
2019-06-27T06:31:49.424Z,99008.72
2019-06-27T06:34:22.018Z,98990.27
2019-06-27T06:36:55.096Z,99000.61
2019-06-27T06:39:28.005Z,99005.35
2019-06-27T06:42:01.198Z,99006.85
2019-06-27T06:44:33.339Z,98998.59
2019-06-27T06:47:07.261Z,99007.61
2019-06-27T06:49:40.200Z,99001.00
2019-06-27T06:52:13.159Z,99001.76
2019-06-27T06:54:45.114Z,99000.68
2019-06-27T06:57:19.097Z,98999.81
2019-06-27T06:59:51.366Z,98996.93
2019-06-27T07:02:25.395Z,98994.52
2019-06-27T07:04:58.313Z,98988.58
2019-06-27T07:07:31.564Z,98986.27
2019-06-27T07:10:04.505Z,98984.92
2019-06-27T07:12:37.345Z,98990.14
2019-06-27T07:15:10.589Z,98994.25
2019-06-27T07:17:42.469Z,98993.64
2019-06-27T07:20:16.591Z,98962.23
2019-06-27T07:22:49.460Z,98992.50
2019-06-27T07:25:22.439Z,98991.25
2019-06-27T07:27:55.471Z,98994.50
2019-06-27T07:30:28.558Z,98995.23
2019-06-27T07:33:01.567Z,98992.45
2019-06-27T07:35:34.338Z,98995.63
2019-06-27T07:38:08.492Z,98997.73
2019-06-27T07:40:40.305Z,98998.38
2019-06-27T07:43:14.430Z,99000.08
2019-06-27T07:45:47.453Z,98991.97
2019-06-27T07:48:19.442Z,98986.80
2019-06-27T07:50:52.062Z,98986.45
2019-06-27T07:53:24.615Z,98990.30
2019-06-27T07:55:55.914Z,98979.90
2019-06-27T07:58:28.541Z,98983.87
2019-06-27T08:01:01.634Z,98985.16
2019-06-27T08:03:34.689Z,98986.97
2019-06-27T08:06:07.429Z,98987.94
2019-06-27T08:08:40.523Z,98983.38
2019-06-27T08:11:13.466Z,98977.63
2019-06-27T08:13:46.615Z,98976.77
2019-06-27T08:16:18.550Z,98978.67
2019-06-27T08:18:51.987Z,98980.61
2019-06-27T08:21:23.894Z,98973.55
2019-06-27T08:23:58.086Z,98971.14
2019-06-27T08:26:29.482Z,98975.27
2019-06-27T08:29:01.784Z,98973.63
2019-06-27T08:31:50.555Z,98970.67
2019-06-27T08:34:10.606Z,98967.43
2019-06-27T08:36:42.764Z,98968.16
2019-06-27T08:39:18.346Z,98966.13
2019-06-27T08:41:49.618Z,98954.95
2019-06-27T08:44:21.595Z,98960.38
2019-06-27T08:46:52.857Z,98955.13
2019-06-27T08:49:25.840Z,98956.23
2019-06-27T08:51:58.968Z,98960.09
2019-06-27T08:54:31.991Z,98967.48
2019-06-27T08:57:04.900Z,98971.10
2019-06-27T08:59:37.109Z,98961.47
2019-06-27T09:02:09.557Z,98963.19
2019-06-27T09:04:42.093Z,98953.41
2019-06-27T09:07:13.885Z,98960.46
2019-06-27T09:09:47.034Z,98955.55
2019-06-27T09:12:20.043Z,98960.88
2019-06-27T09:14:52.216Z,98954.30
2019-06-27T09:17:25.908Z,98946.59
2019-06-27T09:19:59.832Z,98953.71
2019-06-27T09:22:31.957Z,98954.55
2019-06-27T09:25:07.036Z,98950.09
2019-06-27T09:27:42.622Z,98954.36
2019-06-27T09:30:14.251Z,98937.77
2019-06-27T09:32:47.165Z,98942.73
2019-06-27T09:35:20.148Z,98940.82
2019-06-27T09:37:52.033Z,98947.73
2019-06-27T09:40:25.262Z,98944.78
2019-06-27T09:42:58.135Z,98942.40
2019-06-27T09:45:29.500Z,98942.23
2019-06-27T09:48:01.028Z,98944.41
2019-06-27T09:50:34.180Z,98938.28
2019-06-27T09:53:07.226Z,98940.67
2019-06-27T09:55:40.127Z,98941.64
2019-06-27T09:58:13.120Z,98934.09
2019-06-27T10:00:46.149Z,98927.00
2019-06-27T10:03:19.083Z,98930.95
2019-06-27T10:05:52.227Z,98933.88
2019-06-27T10:08:25.237Z,98931.11
2019-06-27T10:10:58.199Z,98920.77
2019-06-27T10:13:30.196Z,98915.50
2019-06-27T10:16:01.469Z,98916.93
2019-06-27T10:18:34.316Z,98915.92
2019-06-27T10:21:07.592Z,98918.58
2019-06-27T10:23:40.291Z,98909.16
2019-06-27T10:26:12.297Z,98897.55
2019-06-27T10:28:43.609Z,98883.75
2019-06-27T10:31:16.296Z,98885.72
2019-06-27T10:33:48.311Z,98876.25
2019-06-27T10:36:19.565Z,98876.73
2019-06-27T10:38:51.480Z,98871.49
2019-06-27T10:41:23.205Z,98868.05
2019-06-27T10:43:58.564Z,98862.01
2019-06-27T10:46:31.343Z,98868.73
2019-06-27T10:49:04.335Z,98869.11
2019-06-27T10:51:37.395Z,98868.20
2019-06-27T10:54:10.446Z,98868.88
2019-06-27T10:56:43.430Z,98883.43
2019-06-27T10:59:16.493Z,98883.33
2019-06-27T11:01:47.799Z,98868.00
2019-06-27T11:04:19.491Z,98875.59
2019-06-27T11:06:51.476Z,98880.20
2019-06-27T11:09:25.455Z,98869.06
2019-06-27T11:11:58.544Z,98862.94
2019-06-27T11:14:31.539Z,98860.63
2019-06-27T11:17:04.595Z,98846.98
2019-06-27T11:19:51.500Z,98851.82
2019-06-27T11:22:10.669Z,98850.20
2019-06-27T11:24:43.490Z,98854.04
2019-06-27T11:27:16.475Z,98843.78
2019-06-27T11:29:48.547Z,98823.98
2019-06-27T11:32:22.818Z,98824.28
2019-06-27T11:34:55.656Z,98806.32
2019-06-27T11:37:30.120Z,98806.32
2019-06-27T11:40:01.791Z,98819.59
2019-06-27T11:42:35.631Z,98816.29
2019-06-27T11:45:08.347Z,98816.48
2019-06-27T11:47:40.685Z,98820.29
2019-06-27T11:50:13.893Z,98808.66
2019-06-27T11:52:47.432Z,98811.58
2019-06-27T11:55:20.772Z,98828.02
2019-06-27T11:57:52.310Z,98814.70
2019-06-27T12:00:26.758Z,98814.28
2019-06-27T12:02:58.801Z,98815.81
2019-06-27T12:05:31.700Z,98814.64
2019-06-27T12:08:04.749Z,98816.06
2019-06-27T12:10:38.803Z,98821.98
2019-06-27T12:13:10.849Z,98818.63
2019-06-27T12:15:44.946Z,98811.31
2019-06-27T12:18:18.921Z,98813.86
2019-06-27T12:20:52.480Z,98818.73
2019-06-27T12:23:25.893Z,98824.83
2019-06-27T12:25:58.781Z,98828.51
2019-06-27T12:28:31.965Z,98835.72
2019-06-27T12:31:19.243Z,98830.33
2019-06-27T12:33:37.980Z,98821.81
2019-06-27T12:36:10.869Z,98821.16
2019-06-27T12:38:44.899Z,98808.09
2019-06-27T12:41:16.958Z,98807.39
2019-06-27T12:43:52.647Z,98802.23
2019-06-27T12:46:26.079Z,98796.47
2019-06-27T12:48:58.904Z,98787.98
2019-06-27T12:51:32.007Z,98786.93
2019-06-27T12:54:04.909Z,98784.53
2019-06-27T12:56:38.029Z,98783.92
2019-06-27T12:59:11.093Z,98794.23
2019-06-27T13:01:45.382Z,98800.48
2019-06-27T13:04:23.408Z,98801.64
2019-06-27T13:06:51.059Z,98793.11
2019-06-27T13:09:23.066Z,98785.48
2019-06-27T13:11:56.153Z,98788.53
2019-06-27T13:14:27.459Z,98775.31
2019-06-27T13:16:59.115Z,98766.70
2019-06-27T13:19:31.267Z,98768.78
2019-06-27T13:22:04.175Z,98768.07
2019-06-27T13:24:38.204Z,98765.36
2019-06-27T13:27:11.209Z,98759.39
2019-06-27T13:29:44.594Z,98763.38
2019-06-27T13:32:17.387Z,98768.64
2019-06-27T13:34:49.544Z,98766.30
2019-06-27T13:37:22.309Z,98769.97
2019-06-27T13:39:54.372Z,98775.23
2019-06-27T13:42:26.309Z,98774.39
2019-06-27T13:44:59.311Z,98752.53
2019-06-27T13:47:30.580Z,98748.88
2019-06-27T13:50:02.653Z,98755.12
2019-06-27T13:52:36.391Z,98752.16
2019-06-27T13:55:09.579Z,98741.08
2019-06-27T13:57:41.374Z,98727.48
2019-06-27T14:00:15.870Z,98724.43
2019-06-27T14:02:47.273Z,98729.99
2019-06-27T14:05:20.447Z,98739.05
2019-06-27T14:07:52.500Z,98733.38
2019-06-27T14:10:26.405Z,98726.72
2019-06-27T14:12:59.531Z,98740.39
2019-06-27T14:15:32.491Z,98741.95
2019-06-27T14:18:05.832Z,98752.03
2019-06-27T14:20:39.534Z,98750.02
2019-06-27T14:23:12.699Z,98761.43
2019-06-27T14:25:45.347Z,98777.78
2019-06-27T14:28:18.641Z,98777.78
2019-06-27T14:30:51.638Z,98769.79
2019-06-27T14:33:24.200Z,98763.84
2019-06-27T14:35:55.540Z,98749.48
2019-06-27T14:38:28.656Z,98745.55
2019-06-27T14:41:01.572Z,98750.50
2019-06-27T14:43:37.832Z,98776.38
2019-06-27T14:46:12.109Z,98758.79
2019-06-27T14:48:56.900Z,98741.48
2019-06-27T14:51:29.693Z,98742.48
2019-06-27T14:54:02.717Z,98737.84
2019-06-27T14:56:34.800Z,98775.88
2019-06-27T14:59:06.098Z,98769.14
2019-06-27T15:01:37.701Z,98785.67
2019-06-27T15:04:10.718Z,98801.53
2019-06-27T15:06:43.743Z,98800.84
2019-06-27T15:09:17.806Z,98789.45
2019-06-27T15:11:50.775Z,98821.72
2019-06-27T15:14:22.786Z,98833.93
2019-06-27T15:16:55.919Z,98823.67
2019-06-27T15:19:27.814Z,98816.50
2019-06-27T15:22:01.910Z,98813.32
2019-06-27T15:24:37.442Z,98803.37
2019-06-27T15:27:10.847Z,98800.88
2019-06-27T15:29:43.808Z,98772.56
2019-06-27T15:32:17.030Z,98770.13
2019-06-27T15:34:49.942Z,98757.69
2019-06-27T15:37:22.827Z,98759.11
2019-06-27T15:39:55.910Z,98751.13
2019-06-27T15:42:29.954Z,98762.64
2019-06-27T15:45:02.106Z,98749.79
2019-06-27T15:47:35.099Z,98749.34
2019-06-27T15:50:08.691Z,98761.53
2019-06-27T15:52:41.068Z,98806.86
2019-06-27T15:55:14.292Z,98804.36
2019-06-27T15:57:47.075Z,98820.64
2019-06-27T16:00:21.141Z,98802.31
2019-06-27T16:02:52.763Z,98803.06
2019-06-27T16:05:26.309Z,98802.70
2019-06-27T16:07:58.982Z,98788.94
2019-06-27T16:10:32.156Z,98778.58
2019-06-27T16:13:05.177Z,98764.14
2019-06-27T16:15:37.437Z,98756.88
2019-06-27T16:18:09.694Z,98757.78
2019-06-27T16:20:43.100Z,98770.64
2019-06-27T16:23:17.099Z,98781.44
2019-06-27T16:25:51.121Z,98764.62
2019-06-27T16:28:26.914Z,98765.44
2019-06-27T16:30:58.101Z,98767.12
2019-06-27T16:33:31.134Z,98759.39
2019-06-27T16:36:05.224Z,98773.36
2019-06-27T16:38:38.218Z,98761.77
2019-06-27T16:41:11.265Z,98759.05
2019-06-27T16:43:44.153Z,98759.05
2019-06-27T16:46:17.275Z,98765.18
2019-06-27T16:48:51.192Z,98760.39
2019-06-27T16:51:23.262Z,98754.23
2019-06-27T16:53:56.240Z,98757.28
2019-06-27T16:56:29.723Z,98755.57
2019-06-27T16:59:10.644Z,98753.98
2019-06-27T17:01:58.430Z,98758.80
2019-06-27T17:04:29.774Z,98776.39
2019-06-27T17:07:02.430Z,98785.73
2019-06-27T17:09:35.343Z,98794.87
2019-06-27T17:12:08.292Z,98786.45
2019-06-27T17:14:40.582Z,98793.48
2019-06-27T17:17:12.982Z,98793.84
2019-06-27T17:19:46.501Z,98761.97
2019-06-27T17:22:18.388Z,98784.72
2019-06-27T17:24:52.624Z,98784.41
2019-06-27T17:27:24.324Z,98793.17
2019-06-27T17:29:56.625Z,98794.41
2019-06-27T17:32:30.517Z,98787.09
2019-06-27T17:35:02.365Z,98783.23
2019-06-27T17:37:34.764Z,98774.22
2019-06-27T17:40:10.846Z,98777.08
2019-06-27T17:42:42.584Z,98778.45
2019-06-27T17:45:14.975Z,98778.00
2019-06-27T17:47:47.526Z,98776.40
2019-06-27T17:50:20.686Z,98773.22
2019-06-27T17:52:52.838Z,98779.14
2019-06-27T17:55:26.458Z,98784.39
2019-06-27T17:57:59.446Z,98788.94
2019-06-27T18:00:33.541Z,98803.77
2019-06-27T18:03:06.869Z,98804.70
2019-06-27T18:05:38.970Z,98807.19
2019-06-27T18:08:10.635Z,98799.91
2019-06-27T18:10:44.960Z,98809.95
2019-06-27T18:13:17.683Z,98801.51
2019-06-27T18:15:51.620Z,98806.64
2019-06-27T18:18:23.659Z,98793.98
2019-06-27T18:20:56.756Z,98792.41
2019-06-27T18:23:30.671Z,98793.09
2019-06-27T18:26:02.872Z,98800.36
2019-06-27T18:28:36.800Z,98803.41
2019-06-27T18:31:09.667Z,98794.96
2019-06-27T18:33:43.890Z,98799.52
2019-06-27T18:36:17.620Z,98805.08
2019-06-27T18:38:50.880Z,98805.30
2019-06-27T18:41:23.796Z,98795.51
2019-06-27T18:44:09.544Z,98799.02
2019-06-27T18:46:48.315Z,98795.92
2019-06-27T18:49:20.806Z,98806.61
2019-06-27T18:51:53.139Z,98799.75
2019-06-27T18:54:26.490Z,98808.83
2019-06-27T18:57:10.767Z,98806.28
2019-06-27T18:59:42.939Z,98812.16
2019-06-27T19:02:14.870Z,98815.56
2019-06-27T19:05:00.885Z,98830.21
2019-06-27T19:07:44.810Z,98826.39
2019-06-27T19:10:09.560Z,98827.97
2019-06-27T19:12:41.123Z,98840.31
2019-06-27T19:15:14.246Z,98845.61
2019-06-27T19:17:50.243Z,98855.45
2019-06-27T19:20:36.896Z,98855.26
2019-06-27T19:23:28.727Z,98867.26
2019-06-27T19:26:02.237Z,98870.36
2019-06-27T19:28:34.026Z,98868.75
2019-06-27T19:31:08.883Z,98878.73
2019-06-27T19:33:43.054Z,98882.20
2019-06-27T19:36:16.193Z,98890.88
2019-06-27T19:38:49.111Z,98892.98
2019-06-27T19:41:24.766Z,98896.15
2019-06-27T19:43:56.134Z,98897.75
2019-06-27T19:46:28.064Z,98898.30
2019-06-27T19:49:01.059Z,98907.77
2019-06-27T19:51:33.285Z,98912.50
2019-06-27T19:54:05.255Z,98912.92
2019-06-27T19:56:37.113Z,98911.40
2019-06-27T19:59:11.336Z,98920.83
2019-06-27T20:01:44.151Z,98913.05
2019-06-27T20:04:16.316Z,98918.36
2019-06-27T20:06:48.735Z,98929.00
2019-06-27T20:09:20.213Z,98934.36
2019-06-27T20:11:52.231Z,98935.81
2019-06-27T20:14:23.514Z,98934.06
2019-06-27T20:16:57.319Z,98930.62
2019-06-27T20:19:28.586Z,98939.89
2019-06-27T20:22:02.500Z,98944.06
2019-06-27T20:24:34.308Z,98938.87
2019-06-27T20:27:08.686Z,98942.30
2019-06-27T20:29:41.295Z,98943.50
2019-06-27T20:32:15.487Z,98947.99
2019-06-27T20:34:47.861Z,98949.66
2019-06-27T20:37:21.353Z,98954.70
2019-06-27T20:39:53.363Z,98961.72
2019-06-27T20:42:24.786Z,98964.60
2019-06-27T20:44:56.456Z,98955.50
2019-06-27T20:47:29.412Z,98962.30
2019-06-27T20:50:05.271Z,98961.16
2019-06-27T20:52:39.564Z,98964.60
2019-06-27T20:55:11.571Z,98968.48
2019-06-27T20:57:44.522Z,98977.11
2019-06-27T21:00:18.741Z,98983.48
2019-06-27T21:02:50.553Z,98985.16
2019-06-27T21:05:24.515Z,98988.41
2019-06-27T21:07:56.441Z,98992.87
2019-06-27T21:10:30.552Z,98998.02
2019-06-27T21:13:02.522Z,98997.92
2019-06-27T21:15:33.828Z,99000.64
2019-06-27T21:18:05.679Z,99000.02
2019-06-27T21:20:37.506Z,99005.59
2019-06-27T21:23:12.591Z,99011.57
2019-06-27T21:25:45.148Z,98991.95
2019-06-27T21:28:18.855Z,99009.91
2019-06-27T21:30:54.180Z,99017.94
2019-06-27T21:33:27.179Z,99023.33
2019-06-27T21:35:59.704Z,99026.28
2019-06-27T21:38:31.584Z,99035.40
2019-06-27T21:41:07.266Z,99041.52
2019-06-27T21:43:39.767Z,99033.87
2019-06-27T21:46:11.865Z,99034.01
2019-06-27T21:48:43.812Z,99038.86
2019-06-27T21:51:17.670Z,99041.57
2019-06-27T21:53:50.795Z,99046.52
2019-06-27T21:56:23.752Z,99041.95
2019-06-27T21:58:56.806Z,99044.96
2019-06-27T22:01:28.292Z,99041.47
2019-06-27T22:03:59.907Z,99051.94
2019-06-27T22:06:31.909Z,99050.92
2019-06-27T22:09:20.084Z,99051.67
2019-06-27T22:11:41.948Z,99054.39
2019-06-27T22:14:16.285Z,99052.48
2019-06-27T22:16:51.064Z,99049.83
2019-06-27T22:19:23.361Z,99051.31
2019-06-27T22:21:56.988Z,99054.38
2019-06-27T22:24:28.883Z,99060.78
2019-06-27T22:27:02.862Z,99059.55
2019-06-27T22:29:34.953Z,99065.31
2019-06-27T22:32:06.221Z,99073.37
2019-06-27T22:34:39.223Z,99080.60
2019-06-27T22:37:12.795Z,99074.06
2019-06-27T22:40:01.975Z,99073.31
2019-06-27T22:42:53.563Z,99073.73
2019-06-27T22:45:44.467Z,99080.05
2019-06-27T22:48:17.065Z,99075.22
2019-06-27T22:51:22.343Z,99077.94
2019-06-27T22:53:58.251Z,99080.91
2019-06-27T22:56:30.124Z,99071.16
2019-06-27T22:59:03.102Z,99072.61
2019-06-27T23:01:36.236Z,99073.52
2019-06-27T23:04:09.067Z,99069.35
2019-06-27T23:06:42.126Z,99070.55
2019-06-27T23:09:15.052Z,99079.66
2019-06-27T23:11:49.632Z,99076.33
2019-06-27T23:14:21.689Z,99081.84
2019-06-27T23:16:53.571Z,99075.23
2019-06-27T23:19:27.251Z,99079.61
2019-06-27T23:22:00.289Z,99081.38
2019-06-27T23:24:32.315Z,99082.91
2019-06-27T23:27:04.491Z,99086.48
2019-06-27T23:29:36.334Z,99081.97
2019-06-27T23:32:09.344Z,99074.52
2019-06-27T23:34:41.632Z,99074.52
2019-06-27T23:37:14.915Z,99080.75
2019-06-27T23:39:46.211Z,99081.09
2019-06-27T23:42:18.340Z,99083.08
2019-06-27T23:44:50.274Z,99078.75
2019-06-27T23:47:21.878Z,99085.33
2019-06-27T23:49:53.331Z,99081.89
2019-06-27T23:52:24.745Z,99080.89
2019-06-27T23:54:57.692Z,99083.95
2019-06-27T23:57:30.525Z,99077.30
